Time,TemperatureF,DewpointF,PressureIn,WindDirection,WindDirectionDegrees,WindSpeedMPH,WindSpeedGustMPH,Humidity,HourlyPrecipIn,Conditions,Clouds,dailyrainin,SoftwareType,DateUTC
2013-02-21 00:00:00,33.2,24.8,29.51,West,265,9.0,15.0,71,0.00,,,0.00,vanprod-2.5-rc3,2013-02-21 07:00:00,
2013-02-21 00:05:00,33.3,24.6,29.51,West,263,12.0,12.0,70,0.00,,,0.00,vanprod-2.5-rc3,2013-02-21 07:05:00,
2013-02-21 00:10:00,33.3,24.9,29.51,West,267,12.0,14.0,71,0.00,,,0.00,vanprod-2.5-rc3,2013-02-21 07:10:00,
2013-02-21 00:15:00,33.3,24.6,29.51,WSW,258,13.0,13.0,70,0.00,,,0.00,vanprod-2.5-rc3,2013-02-21 07:15:00,
2013-02-21 00:20:00,33.2,24.5,29.52,West,260,10.0,10.0,70,0.00,,,0.00,vanprod-2.5-rc3,2013-02-21 07:20:00,
2013-02-21 00:25:00,33.1,24.7,29.51,West,261,10.0,16.0,71,0.00,,,0.00,vanprod-2.5-rc3,2013-02-21 07:25:00,
2013-02-21 00:30:00,33.1,24.4,29.52,WSW,258,11.0,11.0,70,0.00,,,0.00,vanprod-2.5-rc3,2013-02-21 07:30:00,
2013-02-21 00:35:00,33.0,24.6,29.52,WSW,254,9.0,11.0,71,0.00,,,0.00,vanprod-2.5-rc3,2013-02-21 07:35:00,
2013-02-21 00:40:00,32.9,24.9,29.52,WSW,243,9.0,9.0,72,0.00,,,0.00,vanprod-2.5-rc3,2013-02-21 07:40:00,
2013-02-21 00:45:00,32.9,24.9,29.52,WSW,244,9.0,9.0,72,0.00,,,0.00,vanprod-2.5-rc3,2013-02-21 07:45:00,
2013-02-21 00:50:00,32.9,24.9,29.52,WSW,251,7.0,8.0,72,0.00,,,0.00,vanprod-2.5-rc3,2013-02-21 07:50:00,
2013-02-21 00:55:00,32.8,24.8,29.52,WSW,246,7.0,7.0,72,0.00,,,0.00,vanprod-2.5-rc3,2013-02-21 07:55:00,
2013-02-21 01:00:00,32.8,25.1,29.52,WSW,245,7.0,7.0,73,0.00,,,0.00,vanprod-2.5-rc3,2013-02-21 08:00:00,
2013-02-21 01:05:00,32.7,25.0,29.52,WSW,257,5.0,5.0,73,0.00,,,0.00,vanprod-2.5-rc3,2013-02-21 08:05:00,
2013-02-21 01:10:00,32.6,24.9,29.52,West,270,5.0,9.0,73,0.00,,,0.00,vanprod-2.5-rc3,2013-02-21 08:10:00,
2013-02-21 01:15:00,32.6,24.9,29.53,West,276,6.0,6.0,73,0.00,,,0.00,vanprod-2.5-rc3,2013-02-21 08:15:00,
2013-02-21 01:20:00,32.6,24.6,29.53,WNW,289,3.0,4.0,72,0.00,,,0.00,vanprod-2.5-rc3,2013-02-21 08:20:00,
2013-02-21 01:25:00,32.6,24.6,29.53,West,281,0.0,0.0,72,0.00,,,0.00,vanprod-2.5-rc3,2013-02-21 08:25:00,
2013-02-21 01:30:00,32.6,24.6,29.53,West,268,0.0,0.0,72,0.00,,,0.00,vanprod-2.5-rc3,2013-02-21 08:30:00,
2013-02-21 01:35:00,32.6,24.9,29.53,West,275,0.0,0.0,73,0.00,,,0.00,vanprod-2.5-rc3,2013-02-21 08:35:00,
2013-02-21 01:40:00,32.5,25.1,29.53,WSW,240,0.0,0.0,74,0.00,,,0.00,vanprod-2.5-rc3,2013-02-21 08:40:00,
2013-02-21 01:45:00,32.3,25.3,29.53,WSW,240,0.0,0.0,75,0.00,,,0.00,vanprod-2.5-rc3,2013-02-21 08:45:00,
2013-02-21 01:50:00,32.1,25.1,29.53,SW,220,0.0,0.0,75,0.00,,,0.00,vanprod-2.5-rc3,2013-02-21 08:50:00,
2013-02-21 01:55:00,32.0,25.3,29.53,SW,222,0.0,0.0,76,0.00,,,0.00,vanprod-2.5-rc3,2013-02-21 08:55:00,
2013-02-21 02:00:00,31.8,25.1,29.54,SW,214,0.0,0.0,76,0.00,,,0.00,vanprod-2.5-rc3,2013-02-21 09:00:00,
2013-02-21 02:05:00,31.8,24.5,29.54,WSW,251,0.0,0.0,74,0.00,,,0.00,vanprod-2.5-rc3,2013-02-21 09:05:00,
2013-02-21 02:10:00,31.9,24.6,29.54,WSW,243,0.0,0.0,74,0.00,,,0.00,vanprod-2.5-rc3,2013-02-21 09:10:00,
2013-02-21 02:15:00,31.9,24.9,29.54,SW,232,0.0,0.0,75,0.00,,,0.00,vanprod-2.5-rc3,2013-02-21 09:15:00,
2013-02-21 02:20:00,31.8,24.8,29.54,SW,220,0.0,0.0,75,0.00,,,0.00,vanprod-2.5-rc3,2013-02-21 09:20:00,
2013-02-21 02:25:00,31.7,24.4,29.54,WSW,242,0.0,0.0,74,0.00,,,0.00,vanprod-2.5-rc3,2013-02-21 09:25:00,
2013-02-21 02:30:00,31.7,23.7,29.54,WSW,247,0.0,0.0,72,0.00,,,0.00,vanprod-2.5-rc3,2013-02-21 09:30:00,
2013-02-21 02:35:00,31.7,23.4,29.54,WSW,249,0.0,0.0,71,0.00,,,0.00,vanprod-2.5-rc3,2013-02-21 09:35:00,
2013-02-21 02:40:00,31.8,23.1,29.54,WSW,240,5.0,10.0,70,0.00,,,0.00,vanprod-2.5-rc3,2013-02-21 09:40:00,
2013-02-21 02:45:00,31.8,23.1,29.54,West,260,3.0,3.0,70,0.00,,,0.00,vanprod-2.5-rc3,2013-02-21 09:45:00,
2013-02-21 02:50:00,31.8,23.5,29.54,SW,228,0.0,0.0,71,0.00,,,0.00,vanprod-2.5-rc3,2013-02-21 09:50:00,
2013-02-21 02:55:00,31.7,23.1,29.54,SW,222,1.0,2.0,70,0.00,,,0.00,vanprod-2.5-rc3,2013-02-21 09:55:00,
2013-02-21 03:00:00,31.7,23.4,29.53,SSW,204,0.0,0.0,71,0.00,,,0.00,vanprod-2.5-rc3,2013-02-21 10:00:00,
2013-02-21 03:05:00,31.6,23.3,29.53,SSW,197,3.0,3.0,71,0.00,,,0.00,vanprod-2.5-rc3,2013-02-21 10:05:00,
2013-02-21 03:10:00,31.5,22.9,29.53,SSW,205,3.0,4.0,70,0.00,,,0.00,vanprod-2.5-rc3,2013-02-21 10:10:00,
2013-02-21 03:15:00,31.5,22.5,29.53,SW,229,4.0,4.0,69,0.00,,,0.00,vanprod-2.5-rc3,2013-02-21 10:15:00,
2013-02-21 03:20:00,31.7,21.7,29.53,WSW,250,2.0,2.0,66,0.00,,,0.00,vanprod-2.5-rc3,2013-02-21 10:20:00,
2013-02-21 03:25:00,31.8,22.1,29.53,WSW,242,5.0,5.0,67,0.00,,,0.00,vanprod-2.5-rc3,2013-02-21 10:25:00,
2013-02-21 03:30:00,31.7,22.4,29.54,WSW,243,4.0,4.0,68,0.00,,,0.00,vanprod-2.5-rc3,2013-02-21 10:30:00,
2013-02-21 03:35:00,31.6,22.3,29.54,SW,234,3.0,6.0,68,0.00,,,0.00,vanprod-2.5-rc3,2013-02-21 10:35:00,
2013-02-21 03:40:00,31.5,22.2,29.54,WSW,253,10.0,10.0,68,0.00,,,0.00,vanprod-2.5-rc3,2013-02-21 10:40:00,
2013-02-21 03:45:00,31.5,22.9,29.54,WSW,248,6.0,6.0,70,0.00,,,0.00,vanprod-2.5-rc3,2013-02-21 10:45:00,
2013-02-21 03:50:00,31.4,23.1,29.54,SW,221,5.0,6.0,71,0.00,,,0.00,vanprod-2.5-rc3,2013-02-21 10:50:00,
2013-02-21 03:55:00,31.1,22.1,29.54,WSW,237,5.0,5.0,69,0.00,,,0.00,vanprod-2.5-rc3,2013-02-21 10:55:00,
2013-02-21 04:00:00,31.1,22.5,29.54,SW,220,4.0,4.0,70,0.00,,,0.00,vanprod-2.5-rc3,2013-02-21 11:00:00,
2013-02-21 04:05:00,31.0,22.4,29.54,SW,233,3.0,5.0,70,0.00,,,0.00,vanprod-2.5-rc3,2013-02-21 11:05:00,
2013-02-21 04:10:00,31.0,22.4,29.54,WSW,244,2.0,2.0,70,0.00,,,0.00,vanprod-2.5-rc3,2013-02-21 11:10:00,
2013-02-21 04:15:00,31.0,22.0,29.54,SW,226,3.0,3.0,69,0.00,,,0.00,vanprod-2.5-rc3,2013-02-21 11:15:00,
2013-02-21 04:20:00,30.9,21.6,29.54,SW,226,2.0,2.0,68,0.00,,,0.00,vanprod-2.5-rc3,2013-02-21 11:20:00,
2013-02-21 04:25:00,30.9,21.6,29.54,SW,218,1.0,2.0,68,0.00,,,0.00,vanprod-2.5-rc3,2013-02-21 11:25:00,
2013-02-21 04:30:00,30.9,21.6,29.55,SW,231,0.0,0.0,68,0.00,,,0.00,vanprod-2.5-rc3,2013-02-21 11:30:00,
2013-02-21 04:35:00,30.9,22.3,29.55,WSW,256,3.0,5.0,70,0.00,,,0.00,vanprod-2.5-rc3,2013-02-21 11:35:00,
2013-02-21 04:40:00,30.9,21.9,29.55,SW,230,3.0,4.0,69,0.00,,,0.00,vanprod-2.5-rc3,2013-02-21 11:40:00,
2013-02-21 04:45:00,31.0,21.0,29.55,SW,214,3.0,3.0,66,0.00,,,0.00,vanprod-2.5-rc3,2013-02-21 11:45:00,
2013-02-21 04:50:00,31.0,21.3,29.55,WSW,241,5.0,5.0,67,0.00,,,0.00,vanprod-2.5-rc3,2013-02-21 11:50:00,
2013-02-21 04:55:00,31.0,21.0,29.56,WSW,251,3.0,3.0,66,0.00,,,0.00,vanprod-2.5-rc3,2013-02-21 11:55:00,
2013-02-21 05:00:00,31.0,19.9,29.57,West,265,8.0,8.0,63,0.00,,,0.00,vanprod-2.5-rc3,2013-02-21 12:00:00,
2013-02-21 05:05:00,31.1,20.0,29.57,WSW,243,2.0,2.0,63,0.00,,,0.00,vanprod-2.5-rc3,2013-02-21 12:05:00,
2013-02-21 05:10:00,31.1,20.0,29.57,SW,232,3.0,3.0,63,0.00,,,0.00,vanprod-2.5-rc3,2013-02-21 12:10:00,
2013-02-21 05:15:00,31.0,19.9,29.57,WSW,254,5.0,5.0,63,0.00,,,0.00,vanprod-2.5-rc3,2013-02-21 12:15:00,
2013-02-21 05:20:00,31.0,19.9,29.57,WSW,248,4.0,4.0,63,0.00,,,0.00,vanprod-2.5-rc3,2013-02-21 12:20:00,
2013-02-21 05:25:00,31.0,19.1,29.58,West,267,5.0,5.0,61,0.00,,,0.00,vanprod-2.5-rc3,2013-02-21 12:25:00,
2013-02-21 05:30:00,31.1,19.2,29.58,West,260,3.0,3.0,61,0.00,,,0.00,vanprod-2.5-rc3,2013-02-21 12:30:00,
2013-02-21 05:35:00,31.0,19.1,29.58,WSW,258,4.0,4.0,61,0.00,,,0.00,vanprod-2.5-rc3,2013-02-21 12:35:00,
2013-02-21 05:40:00,31.1,20.0,29.59,WSW,248,3.0,4.0,63,0.00,,,0.00,vanprod-2.5-rc3,2013-02-21 12:40:00,
2013-02-21 05:45:00,31.1,19.6,29.59,WSW,243,9.0,9.0,62,0.00,,,0.00,vanprod-2.5-rc3,2013-02-21 12:45:00,
2013-02-21 05:50:00,31.0,19.9,29.59,SW,227,4.0,4.0,63,0.00,,,0.00,vanprod-2.5-rc3,2013-02-21 12:50:00,
2013-02-21 05:55:00,31.0,19.5,29.59,WSW,251,3.0,3.0,62,0.00,,,0.00,vanprod-2.5-rc3,2013-02-21 12:55:00,
2013-02-21 06:00:00,30.9,19.8,29.59,SW,222,14.0,14.0,63,0.00,,,0.00,vanprod-2.5-rc3,2013-02-21 13:00:00,
2013-02-21 06:05:00,30.8,19.7,29.59,SW,227,10.0,11.0,63,0.00,,,0.00,vanprod-2.5-rc3,2013-02-21 13:05:00,
2013-02-21 06:10:00,30.7,20.3,29.59,SW,216,3.0,3.0,65,0.00,,,0.00,vanprod-2.5-rc3,2013-02-21 13:10:00,
2013-02-21 06:15:00,30.5,20.5,29.59,SSW,213,3.0,5.0,66,0.00,,,0.00,vanprod-2.5-rc3,2013-02-21 13:15:00,
2013-02-21 06:20:00,30.3,20.0,29.58,SW,230,4.0,5.0,65,0.00,,,0.00,vanprod-2.5-rc3,2013-02-21 13:20:00,
2013-02-21 06:25:00,30.1,20.1,29.59,SW,229,2.0,2.0,66,0.00,,,0.00,vanprod-2.5-rc3,2013-02-21 13:25:00,
2013-02-21 06:30:00,30.1,19.8,29.58,WSW,251,10.0,14.0,65,0.00,,,0.00,vanprod-2.5-rc3,2013-02-21 13:30:00,
2013-02-21 06:35:00,30.1,20.1,29.59,SSW,208,7.0,12.0,66,0.00,,,0.00,vanprod-2.5-rc3,2013-02-21 13:35:00,
2013-02-21 06:40:00,30.1,20.1,29.59,SW,222,4.0,4.0,66,0.00,,,0.00,vanprod-2.5-rc3,2013-02-21 13:40:00,
2013-02-21 06:45:00,30.0,20.4,29.59,SSW,209,0.0,0.0,67,0.00,,,0.00,vanprod-2.5-rc3,2013-02-21 13:45:00,
2013-02-21 06:50:00,29.9,20.3,29.59,WSW,241,1.0,0.0,67,0.00,,,0.00,vanprod-2.5-rc3,2013-02-21 13:50:00,
2013-02-21 06:55:00,29.8,20.5,29.60,WNW,284,0.0,1.0,68,0.00,,,0.00,vanprod-2.5-rc3,2013-02-21 13:55:00,
2013-02-21 07:00:00,29.7,20.4,29.60,SSW,213,2.0,2.0,68,0.00,,,0.00,vanprod-2.5-rc3,2013-02-21 14:00:00,
2013-02-21 07:05:00,29.8,19.8,29.60,WSW,249,5.0,5.0,66,0.00,,,0.00,vanprod-2.5-rc3,2013-02-21 14:05:00,
2013-02-21 07:10:00,29.9,19.9,29.60,SW,235,7.0,7.0,66,0.00,,,0.00,vanprod-2.5-rc3,2013-02-21 14:10:00,
2013-02-21 07:15:00,30.1,19.4,29.60,WSW,249,1.0,2.0,64,0.00,,,0.00,vanprod-2.5-rc3,2013-02-21 14:15:00,
2013-02-21 07:20:00,30.1,19.8,29.61,WSW,237,2.0,3.0,65,0.00,,,0.00,vanprod-2.5-rc3,2013-02-21 14:20:00,
2013-02-21 07:25:00,30.0,19.3,29.61,WSW,249,3.0,3.0,64,0.00,,,0.00,vanprod-2.5-rc3,2013-02-21 14:25:00,
2013-02-21 07:30:00,30.0,18.9,29.61,WSW,238,2.0,2.0,63,0.00,,,0.00,vanprod-2.5-rc3,2013-02-21 14:30:00,
2013-02-21 07:35:00,30.0,19.3,29.61,WSW,239,3.0,6.0,64,0.00,,,0.00,vanprod-2.5-rc3,2013-02-21 14:35:00,
2013-02-21 07:40:00,30.1,19.0,29.62,West,262,7.0,7.0,63,0.00,,,0.00,vanprod-2.5-rc3,2013-02-21 14:40:00,
2013-02-21 07:45:00,30.1,19.0,29.62,WSW,245,5.0,10.0,63,0.00,,,0.00,vanprod-2.5-rc3,2013-02-21 14:45:00,
2013-02-21 07:50:00,30.0,18.9,29.63,West,272,1.0,0.0,63,0.00,,,0.00,vanprod-2.5-rc3,2013-02-21 14:50:00,
2013-02-21 07:55:00,29.9,18.9,29.63,WSW,255,3.0,3.0,63,0.00,,,0.00,vanprod-2.5-rc3,2013-02-21 14:55:00,
2013-02-21 08:00:00,29.9,18.5,29.64,WSW,258,10.0,13.0,62,0.00,,,0.00,vanprod-2.5-rc3,2013-02-21 15:00:00,
2013-02-21 08:05:00,30.0,18.6,29.65,WSW,237,7.0,9.0,62,0.00,,,0.00,vanprod-2.5-rc3,2013-02-21 15:05:00,
2013-02-21 08:10:00,29.9,18.5,29.65,WSW,247,5.0,7.0,62,0.00,,,0.00,vanprod-2.5-rc3,2013-02-21 15:10:00,
2013-02-21 08:15:00,29.8,18.4,29.65,WSW,253,3.0,3.0,62,0.00,,,0.00,vanprod-2.5-rc3,2013-02-21 15:15:00,
2013-02-21 08:20:00,29.8,18.0,29.65,West,261,10.0,11.0,61,0.00,,,0.00,vanprod-2.5-rc3,2013-02-21 15:20:00,
2013-02-21 08:25:00,29.8,18.4,29.66,WSW,245,8.0,8.0,62,0.00,,,0.00,vanprod-2.5-rc3,2013-02-21 15:25:00,
2013-02-21 08:30:00,29.9,18.5,29.66,WSW,242,7.0,10.0,62,0.00,,,0.00,vanprod-2.5-rc3,2013-02-21 15:30:00,
2013-02-21 08:35:00,29.9,18.1,29.66,West,260,10.0,10.0,61,0.00,,,0.00,vanprod-2.5-rc3,2013-02-21 15:35:00,
2013-02-21 08:40:00,30.0,18.6,29.66,WSW,241,12.0,12.0,62,0.00,,,0.00,vanprod-2.5-rc3,2013-02-21 15:40:00,
2013-02-21 08:45:00,30.1,18.3,29.66,WSW,241,10.0,10.0,61,0.00,,,0.00,vanprod-2.5-rc3,2013-02-21 15:45:00,
2013-02-21 08:50:00,30.2,18.8,29.66,WSW,245,7.0,7.0,62,0.00,,,0.00,vanprod-2.5-rc3,2013-02-21 15:50:00,
2013-02-21 08:55:00,30.4,18.6,29.66,WSW,247,10.0,10.0,61,0.00,,,0.00,vanprod-2.5-rc3,2013-02-21 15:55:00,
2013-02-21 09:00:00,30.4,18.2,29.66,SW,236,10.0,10.0,60,0.00,,,0.00,vanprod-2.5-rc3,2013-02-21 16:00:00,
2013-02-21 09:05:00,30.5,19.0,29.67,WSW,241,8.0,10.0,62,0.00,,,0.00,vanprod-2.5-rc3,2013-02-21 16:05:00,
2013-02-21 09:10:00,30.6,18.8,29.67,SW,225,3.0,3.0,61,0.00,,,0.00,vanprod-2.5-rc3,2013-02-21 16:10:00,
2013-02-21 09:15:00,30.7,18.9,29.67,SW,232,8.0,11.0,61,0.00,,,0.00,vanprod-2.5-rc3,2013-02-21 16:15:00,
2013-02-21 09:20:00,30.7,18.1,29.67,West,260,9.0,10.0,59,0.00,,,0.00,vanprod-2.5-rc3,2013-02-21 16:20:00,
2013-02-21 09:25:00,30.9,18.7,29.67,SW,229,7.0,13.0,60,0.00,,,0.00,vanprod-2.5-rc3,2013-02-21 16:25:00,
2013-02-21 09:30:00,31.2,18.6,29.68,WSW,246,9.0,9.0,59,0.00,,,0.00,vanprod-2.5-rc3,2013-02-21 16:30:00,
2013-02-21 09:35:00,31.3,18.6,29.68,SW,234,9.0,9.0,59,0.00,,,0.00,vanprod-2.5-rc3,2013-02-21 16:35:00,
2013-02-21 09:40:00,31.4,18.7,29.68,WSW,244,9.0,9.0,59,0.00,,,0.00,vanprod-2.5-rc3,2013-02-21 16:40:00,
2013-02-21 09:45:00,31.4,19.1,29.68,SW,235,8.0,12.0,60,0.00,,,0.00,vanprod-2.5-rc3,2013-02-21 16:45:00,
2013-02-21 09:50:00,31.5,18.0,29.68,WSW,255,12.0,12.0,57,0.00,,,0.00,vanprod-2.5-rc3,2013-02-21 16:50:00,
2013-02-21 09:55:00,31.6,18.1,29.68,SW,235,8.0,10.0,57,0.00,,,0.00,vanprod-2.5-rc3,2013-02-21 16:55:00,
2013-02-21 10:00:00,31.9,18.4,29.68,WSW,255,12.0,15.0,57,0.00,,,0.00,vanprod-2.5-rc3,2013-02-21 17:00:00,
2013-02-21 10:05:00,31.7,18.6,29.68,WSW,243,10.0,12.0,58,0.00,,,0.00,vanprod-2.5-rc3,2013-02-21 17:05:00,
2013-02-21 10:10:00,31.9,18.4,29.68,WSW,248,12.0,14.0,57,0.00,,,0.00,vanprod-2.5-rc3,2013-02-21 17:10:00,
2013-02-21 10:15:00,32.0,19.3,29.68,WSW,247,11.0,11.0,59,0.00,,,0.00,vanprod-2.5-rc3,2013-02-21 17:15:00,
2013-02-21 10:20:00,32.1,18.6,29.68,SW,235,12.0,14.0,57,0.00,,,0.00,vanprod-2.5-rc3,2013-02-21 17:20:00,
2013-02-21 10:25:00,32.2,19.1,29.68,WSW,238,10.0,11.0,58,0.00,,,0.00,vanprod-2.5-rc3,2013-02-21 17:25:00,
2013-02-21 10:30:00,32.5,19.0,29.67,SW,229,10.0,12.0,57,0.00,,,0.00,vanprod-2.5-rc3,2013-02-21 17:30:00,
2013-02-21 10:35:00,32.7,19.2,29.67,WSW,237,10.0,12.0,57,0.00,,,0.00,vanprod-2.5-rc3,2013-02-21 17:35:00,
2013-02-21 10:40:00,32.8,19.3,29.67,WSW,239,9.0,10.0,57,0.00,,,0.00,vanprod-2.5-rc3,2013-02-21 17:40:00,
2013-02-21 10:45:00,32.9,19.8,29.68,WSW,249,6.0,9.0,58,0.00,,,0.00,vanprod-2.5-rc3,2013-02-21 17:45:00,
2013-02-21 10:50:00,33.1,19.1,29.68,WSW,248,11.0,13.0,56,0.00,,,0.00,vanprod-2.5-rc3,2013-02-21 17:50:00,
2013-02-21 10:55:00,32.9,18.9,29.68,WSW,253,10.0,12.0,56,0.00,,,0.00,vanprod-2.5-rc3,2013-02-21 17:55:00,
2013-02-21 11:00:00,33.2,19.6,29.68,WSW,253,4.0,4.0,57,0.00,,,0.00,vanprod-2.5-rc3,2013-02-21 18:00:00,
2013-02-21 11:05:00,33.5,19.5,29.68,WSW,254,12.0,14.0,56,0.00,,,0.00,vanprod-2.5-rc3,2013-02-21 18:05:00,
2013-02-21 11:10:00,33.5,19.5,29.68,West,273,10.0,11.0,56,0.00,,,0.00,vanprod-2.5-rc3,2013-02-21 18:10:00,
2013-02-21 11:15:00,33.5,19.1,29.69,West,264,11.0,11.0,55,0.00,,,0.00,vanprod-2.5-rc3,2013-02-21 18:15:00,
2013-02-21 11:20:00,33.7,19.7,29.69,WSW,256,12.0,13.0,56,0.00,,,0.00,vanprod-2.5-rc3,2013-02-21 18:20:00,
2013-02-21 11:25:00,33.7,19.7,29.69,WSW,251,10.0,11.0,56,0.00,,,0.00,vanprod-2.5-rc3,2013-02-21 18:25:00,
2013-02-21 11:30:00,33.9,20.3,29.69,WSW,255,10.0,13.0,57,0.00,,,0.00,vanprod-2.5-rc3,2013-02-21 18:30:00,
2013-02-21 11:35:00,34.1,20.5,29.69,WSW,248,10.0,15.0,57,0.00,,,0.00,vanprod-2.5-rc3,2013-02-21 18:35:00,
2013-02-21 11:40:00,34.1,18.3,29.69,WSW,249,12.0,14.0,52,0.00,,,0.00,vanprod-2.5-rc3,2013-02-21 18:40:00,
2013-02-21 11:45:00,34.2,20.2,29.69,WSW,255,10.0,12.0,56,0.00,,,0.00,vanprod-2.5-rc3,2013-02-21 18:45:00,
2013-02-21 11:50:00,34.4,19.5,29.69,WSW,255,11.0,11.0,54,0.00,,,0.00,vanprod-2.5-rc3,2013-02-21 18:50:00,
2013-02-21 11:55:00,34.3,19.4,29.69,WSW,241,14.0,15.0,54,0.00,,,0.00,vanprod-2.5-rc3,2013-02-21 18:55:00,
2013-02-21 12:00:00,34.3,19.4,29.69,WSW,257,10.0,11.0,54,0.00,,,0.00,vanprod-2.5-rc3,2013-02-21 19:00:00,
2013-02-21 12:05:00,34.4,19.5,29.69,WSW,255,13.0,17.0,54,0.00,,,0.00,vanprod-2.5-rc3,2013-02-21 19:05:00,
2013-02-21 12:10:00,34.2,18.4,29.69,WSW,257,11.0,11.0,52,0.00,,,0.00,vanprod-2.5-rc3,2013-02-21 19:10:00,
2013-02-21 12:15:00,34.4,19.5,29.69,SW,223,11.0,12.0,54,0.00,,,0.00,vanprod-2.5-rc3,2013-02-21 19:15:00,
2013-02-21 12:20:00,34.7,19.3,29.70,SW,226,11.0,13.0,53,0.00,,,0.00,vanprod-2.5-rc3,2013-02-21 19:20:00,
2013-02-21 12:25:00,35.0,19.2,29.70,WSW,242,11.0,11.0,52,0.00,,,0.00,vanprod-2.5-rc3,2013-02-21 19:25:00,
2013-02-21 12:30:00,35.2,19.8,29.70,SW,217,12.0,12.0,53,0.00,,,0.00,vanprod-2.5-rc3,2013-02-21 19:30:00,
2013-02-21 12:35:00,35.1,19.3,29.70,West,265,10.0,10.0,52,0.00,,,0.00,vanprod-2.5-rc3,2013-02-21 19:35:00,
2013-02-21 12:40:00,34.8,19.0,29.70,West,272,6.0,10.0,52,0.00,,,0.00,vanprod-2.5-rc3,2013-02-21 19:40:00,
2013-02-21 12:45:00,35.1,19.3,29.69,WSW,249,10.0,14.0,52,0.00,,,0.00,vanprod-2.5-rc3,2013-02-21 19:45:00,
2013-02-21 12:50:00,35.3,19.9,29.69,SSW,211,4.0,0.0,53,0.00,,,0.00,vanprod-2.5-rc3,2013-02-21 19:50:00,
2013-02-21 12:55:00,35.7,19.8,29.69,SW,226,9.0,15.0,52,0.00,,,0.00,vanprod-2.5-rc3,2013-02-21 19:55:00,
2013-02-21 13:00:00,35.7,19.8,29.69,WNW,286,6.0,9.0,52,0.00,,,0.00,vanprod-2.5-rc3,2013-02-21 20:00:00,
2013-02-21 13:06:00,35.6,18.8,29.69,West,277,1.0,2.0,50,0.00,,,0.00,vanprod-2.5-rc3,2013-02-21 20:06:00,
2013-02-21 13:11:00,35.6,19.3,29.69,West,272,3.0,10.0,51,0.00,,,0.00,vanprod-2.5-rc3,2013-02-21 20:11:00,
2013-02-21 13:16:00,35.6,19.3,29.69,WSW,242,9.0,9.0,51,0.00,,,0.00,vanprod-2.5-rc3,2013-02-21 20:16:00,
2013-02-21 13:21:00,36.0,19.2,29.68,West,263,6.0,10.0,50,0.00,,,0.00,vanprod-2.5-rc3,2013-02-21 20:21:00,
2013-02-21 13:26:00,36.1,19.3,29.69,WSW,244,9.0,9.0,50,0.00,,,0.00,vanprod-2.5-rc3,2013-02-21 20:26:00,
2013-02-21 13:31:00,36.0,19.6,29.69,WSW,240,4.0,0.0,51,0.00,,,0.00,vanprod-2.5-rc3,2013-02-21 20:31:00,
2013-02-21 13:36:00,35.9,19.5,29.69,SW,235,7.0,0.0,51,0.00,,,0.00,vanprod-2.5-rc3,2013-02-21 20:36:00,
2013-02-21 13:41:00,35.9,20.0,29.68,SSW,210,4.0,4.0,52,0.00,,,0.00,vanprod-2.5-rc3,2013-02-21 20:41:00,
2013-02-21 13:46:00,36.5,20.6,29.68,SW,225,3.0,7.0,52,0.00,,,0.00,vanprod-2.5-rc3,2013-02-21 20:46:00,
2013-02-21 13:51:00,36.5,20.1,29.69,SW,225,8.0,9.0,51,0.00,,,0.00,vanprod-2.5-rc3,2013-02-21 20:51:00,
2013-02-21 13:56:00,36.5,19.6,29.69,South,191,1.0,4.0,50,0.00,,,0.00,vanprod-2.5-rc3,2013-02-21 20:56:00,
2013-02-21 14:01:00,36.7,19.4,29.68,SW,231,6.0,7.0,49,0.00,,,0.00,vanprod-2.5-rc3,2013-02-21 21:01:00,
2013-02-21 14:06:00,36.6,20.7,29.68,South,187,1.0,5.0,52,0.00,,,0.00,vanprod-2.5-rc3,2013-02-21 21:06:00,
2013-02-21 14:11:00,37.1,20.2,29.68,SSW,210,1.0,4.0,50,0.00,,,0.00,vanprod-2.5-rc3,2013-02-21 21:11:00,
2013-02-21 14:16:00,37.3,19.4,29.68,SSW,208,2.0,7.0,48,0.00,,,0.00,vanprod-2.5-rc3,2013-02-21 21:16:00,
2013-02-21 14:21:00,37.4,20.0,29.69,SSW,208,2.0,6.0,49,0.00,,,0.00,vanprod-2.5-rc3,2013-02-21 21:21:00,
2013-02-21 14:26:00,37.6,20.2,29.67,South,189,1.0,3.0,49,0.00,,,0.00,vanprod-2.5-rc3,2013-02-21 21:26:00,
2013-02-21 14:31:00,38.2,19.8,29.67,South,185,4.0,6.0,47,0.00,,,0.00,vanprod-2.5-rc3,2013-02-21 21:31:00,
2013-02-21 14:37:00,38.3,19.9,29.67,SW,227,2.0,4.0,47,0.00,,,0.00,vanprod-2.5-rc3,2013-02-21 21:37:00,
2013-02-21 14:42:00,37.4,19.5,29.69,West,276,1.0,0.0,48,0.00,,,0.00,vanprod-2.5-rc3,2013-02-21 21:42:00,
2013-02-21 14:47:00,36.9,19.1,29.69,WSW,247,2.0,2.0,48,0.00,,,0.00,vanprod-2.5-rc3,2013-02-21 21:47:00,
2013-02-21 14:52:00,36.6,19.7,29.69,NW,311,4.0,7.0,50,0.00,,,0.00,vanprod-2.5-rc3,2013-02-21 21:52:00,
2013-02-21 14:57:00,36.4,18.6,29.70,NW,322,0.0,1.0,48,0.00,,,0.00,vanprod-2.5-rc3,2013-02-21 21:57:00,
2013-02-21 15:02:00,36.1,19.3,29.69,WNW,299,1.0,0.0,50,0.00,,,0.00,vanprod-2.5-rc3,2013-02-21 22:02:00,
2013-02-21 15:07:00,36.1,20.2,29.69,SSW,209,1.0,1.0,52,0.00,,,0.00,vanprod-2.5-rc3,2013-02-21 22:07:00,
2013-02-21 15:12:00,36.4,20.0,29.69,South,184,2.0,0.0,51,0.00,,,0.00,vanprod-2.5-rc3,2013-02-21 22:12:00,
2013-02-21 15:17:00,36.9,20.0,29.70,South,185,0.0,0.0,50,0.00,,,0.00,vanprod-2.5-rc3,2013-02-21 22:17:00,
2013-02-21 15:22:00,37.2,19.8,29.70,SW,224,1.0,1.0,49,0.00,,,0.00,vanprod-2.5-rc3,2013-02-21 22:22:00,
2013-02-21 15:27:00,36.2,20.3,29.69,WNW,292,0.0,0.0,52,0.00,,,0.00,vanprod-2.5-rc3,2013-02-21 22:27:00,
2013-02-21 15:32:00,35.9,19.1,29.69,NNW,332,0.0,0.0,50,0.00,,,0.00,vanprod-2.5-rc3,2013-02-21 22:32:00,
2013-02-21 15:37:00,35.8,19.0,29.69,NNW,328,2.0,8.0,50,0.00,,,0.00,vanprod-2.5-rc3,2013-02-21 22:37:00,
2013-02-21 15:42:00,35.6,19.3,29.69,NNW,340,7.0,8.0,51,0.00,,,0.00,vanprod-2.5-rc3,2013-02-21 22:42:00,
2013-02-21 15:47:00,35.7,18.9,29.69,NNW,341,4.0,4.0,50,0.00,,,0.00,vanprod-2.5-rc3,2013-02-21 22:47:00,
2013-02-21 15:52:00,35.9,19.1,29.69,NE,39,1.0,1.0,50,0.00,,,0.00,vanprod-2.5-rc3,2013-02-21 22:52:00,
2013-02-21 15:57:00,36.2,19.4,29.69,NNE,30,0.0,0.0,50,0.00,,,0.00,vanprod-2.5-rc3,2013-02-21 22:57:00,
2013-02-21 16:02:00,36.4,19.5,29.69,North,7,0.0,0.0,50,0.00,,,0.00,vanprod-2.5-rc3,2013-02-21 23:02:00,
2013-02-21 16:07:00,36.4,19.5,29.69,NW,310,0.0,0.0,50,0.00,,,0.00,vanprod-2.5-rc3,2013-02-21 23:07:00,
2013-02-21 16:12:00,36.2,18.4,29.69,NW,325,0.0,0.0,48,0.00,,,0.00,vanprod-2.5-rc3,2013-02-21 23:12:00,
2013-02-21 16:18:00,36.3,18.5,29.69,NNW,342,0.0,0.0,48,0.00,,,0.00,vanprod-2.5-rc3,2013-02-21 23:18:00,
2013-02-21 16:23:00,36.3,19.0,29.69,NW,325,0.0,0.0,49,0.00,,,0.00,vanprod-2.5-rc3,2013-02-21 23:23:00,
2013-02-21 16:30:00,36.5,18.2,29.70,NE,49,0.0,0.0,47,0.00,,,0.00,vanprod-2.5-rc3,2013-02-21 23:30:00,
2013-02-21 16:37:00,36.7,18.9,29.70,North,360,1.0,5.0,48,0.00,,,0.00,vanprod-2.5-rc3,2013-02-21 23:37:00,
2013-02-21 16:45:00,37.0,19.1,29.71,SW,223,0.0,0.0,48,0.00,,,0.00,vanprod-2.5-rc3,2013-02-21 23:45:00,
2013-02-21 16:51:00,36.5,18.7,29.71,WSW,254,0.0,0.0,48,0.00,,,0.00,vanprod-2.5-rc3,2013-02-21 23:51:00,
2013-02-21 16:57:00,36.1,18.3,29.70,NE,39,0.0,0.0,48,0.00,,,0.00,vanprod-2.5-rc3,2013-02-21 23:57:00,
2013-02-21 17:02:00,36.0,17.7,29.70,WNW,289,0.0,0.0,47,0.00,,,0.00,vanprod-2.5-rc3,2013-02-22 00:02:00,
2013-02-21 17:07:00,36.0,19.2,29.70,NE,36,5.0,5.0,50,0.00,,,0.00,vanprod-2.5-rc3,2013-02-22 00:07:00,
2013-02-21 17:13:00,35.4,18.6,29.70,NNE,19,0.0,0.0,50,0.00,,,0.00,vanprod-2.5-rc3,2013-02-22 00:13:00,
2013-02-21 17:18:00,34.8,18.1,29.71,NNW,329,0.0,0.0,50,0.00,,,0.00,vanprod-2.5-rc3,2013-02-22 00:18:00,
2013-02-21 17:24:00,34.4,18.2,29.72,NW,314,3.0,4.0,51,0.00,,,0.00,vanprod-2.5-rc3,2013-02-22 00:24:00,
2013-02-21 17:33:00,34.3,18.1,29.72,NNW,336,0.0,0.0,51,0.00,,,0.00,vanprod-2.5-rc3,2013-02-22 00:33:00,